sensor_id;sensor_type;location;lat;lon;timestamp;P1;durP1;ratioP1;P2;durP2;ratioP2
55292;SDS011;41157;53.560;10.098;2023-04-25T00:02:09;7.43;;;3.20;;
55292;SDS011;41157;53.560;10.098;2023-04-25T00:04:37;5.90;;;3.00;;
55292;SDS011;41157;53.560;10.098;2023-04-25T00:07:04;3.93;;;2.90;;
55292;SDS011;41157;53.560;10.098;2023-04-25T00:09:32;6.40;;;3.13;;
55292;SDS011;41157;53.560;10.098;2023-04-25T00:11:59;8.73;;;3.60;;
55292;SDS011;41157;53.560;10.098;2023-04-25T00:14:27;6.43;;;3.53;;
55292;SDS011;41157;53.560;10.098;2023-04-25T00:16:54;7.57;;;3.37;;
55292;SDS011;41157;53.560;10.098;2023-04-25T00:19:21;7.53;;;3.70;;
55292;SDS011;41157;53.560;10.098;2023-04-25T00:21:48;11.53;;;3.53;;
55292;SDS011;41157;53.560;10.098;2023-04-25T00:24:15;9.10;;;2.90;;
55292;SDS011;41157;53.560;10.098;2023-04-25T00:26:43;11.47;;;3.70;;
55292;SDS011;41157;53.560;10.098;2023-04-25T00:29:10;9.40;;;3.60;;
55292;SDS011;41157;53.560;10.098;2023-04-25T00:31:37;13.03;;;3.80;;
55292;SDS011;41157;53.560;10.098;2023-04-25T00:34:05;15.93;;;3.90;;
55292;SDS011;41157;53.560;10.098;2023-04-25T00:36:33;10.57;;;3.90;;
55292;SDS011;41157;53.560;10.098;2023-04-25T00:39:00;14.67;;;3.70;;
55292;SDS011;41157;53.560;10.098;2023-04-25T00:41:27;20.10;;;4.00;;
55292;SDS011;41157;53.560;10.098;2023-04-25T00:43:56;24.47;;;4.47;;
55292;SDS011;41157;53.560;10.098;2023-04-25T00:46:23;18.13;;;3.97;;
55292;SDS011;41157;53.560;10.098;2023-04-25T00:48:50;18.93;;;4.03;;
55292;SDS011;41157;53.560;10.098;2023-04-25T00:51:19;19.77;;;3.83;;
55292;SDS011;41157;53.560;10.098;2023-04-25T00:53:46;20.83;;;4.30;;
55292;SDS011;41157;53.560;10.098;2023-04-25T00:56:14;18.43;;;3.73;;
55292;SDS011;41157;53.560;10.098;2023-04-25T00:58:42;20.77;;;4.03;;
55292;SDS011;41157;53.560;10.098;2023-04-25T01:01:10;21.80;;;4.40;;
55292;SDS011;41157;53.560;10.098;2023-04-25T01:03:38;26.07;;;4.57;;
55292;SDS011;41157;53.560;10.098;2023-04-25T01:06:07;17.30;;;4.00;;
55292;SDS011;41157;53.560;10.098;2023-04-25T01:08:35;26.10;;;4.47;;
55292;SDS011;41157;53.560;10.098;2023-04-25T01:11:02;24.17;;;4.30;;
55292;SDS011;41157;53.560;10.098;2023-04-25T01:13:29;16.60;;;4.20;;
55292;SDS011;41157;53.560;10.098;2023-04-25T01:15:56;18.70;;;4.07;;
55292;SDS011;41157;53.560;10.098;2023-04-25T01:18:25;15.97;;;4.17;;
55292;SDS011;41157;53.560;10.098;2023-04-25T01:20:52;17.13;;;3.77;;
55292;SDS011;41157;53.560;10.098;2023-04-25T01:23:21;22.83;;;4.80;;
55292;SDS011;41157;53.560;10.098;2023-04-25T01:25:48;16.90;;;4.20;;
55292;SDS011;41157;53.560;10.098;2023-04-25T01:28:16;19.90;;;4.27;;
55292;SDS011;41157;53.560;10.098;2023-04-25T01:30:43;18.90;;;4.87;;
55292;SDS011;41157;53.560;10.098;2023-04-25T01:33:10;21.83;;;4.37;;
55292;SDS011;41157;53.560;10.098;2023-04-25T01:35:38;14.57;;;4.27;;
55292;SDS011;41157;53.560;10.098;2023-04-25T01:38:06;24.77;;;4.87;;
55292;SDS011;41157;53.560;10.098;2023-04-25T01:40:34;24.60;;;4.50;;
55292;SDS011;41157;53.560;10.098;2023-04-25T01:43:04;27.07;;;5.07;;
55292;SDS011;41157;53.560;10.098;2023-04-25T01:45:31;23.23;;;4.47;;
55292;SDS011;41157;53.560;10.098;2023-04-25T01:47:58;26.10;;;5.33;;
55292;SDS011;41157;53.560;10.098;2023-04-25T01:50:25;25.40;;;4.73;;
55292;SDS011;41157;53.560;10.098;2023-04-25T01:52:52;19.93;;;4.83;;
55292;SDS011;41157;53.560;10.098;2023-04-25T01:55:19;21.50;;;5.43;;
55292;SDS011;41157;53.560;10.098;2023-04-25T01:57:48;18.90;;;4.50;;
55292;SDS011;41157;53.560;10.098;2023-04-25T02:00:15;25.43;;;4.93;;
55292;SDS011;41157;53.560;10.098;2023-04-25T02:02:42;20.57;;;4.60;;
55292;SDS011;41157;53.560;10.098;2023-04-25T02:05:09;25.67;;;5.10;;
55292;SDS011;41157;53.560;10.098;2023-04-25T02:07:36;22.10;;;4.97;;
55292;SDS011;41157;53.560;10.098;2023-04-25T02:10:03;21.83;;;4.67;;
55292;SDS011;41157;53.560;10.098;2023-04-25T02:12:31;23.53;;;4.97;;
55292;SDS011;41157;53.560;10.098;2023-04-25T02:14:59;23.57;;;4.50;;
55292;SDS011;41157;53.560;10.098;2023-04-25T02:17:26;20.90;;;4.57;;
55292;SDS011;41157;53.560;10.098;2023-04-25T02:19:53;21.97;;;4.97;;
55292;SDS011;41157;53.560;10.098;2023-04-25T02:22:20;26.73;;;4.53;;
55292;SDS011;41157;53.560;10.098;2023-04-25T02:24:47;23.40;;;4.77;;
55292;SDS011;41157;53.560;10.098;2023-04-25T02:27:14;20.00;;;5.37;;
55292;SDS011;41157;53.560;10.098;2023-04-25T02:29:41;24.57;;;4.70;;
55292;SDS011;41157;53.560;10.098;2023-04-25T02:32:10;20.77;;;5.00;;
55292;SDS011;41157;53.560;10.098;2023-04-25T02:34:37;29.00;;;5.77;;
55292;SDS011;41157;53.560;10.098;2023-04-25T02:37:04;24.47;;;4.37;;
55292;SDS011;41157;53.560;10.098;2023-04-25T02:39:31;21.57;;;5.83;;
55292;SDS011;41157;53.560;10.098;2023-04-25T02:41:58;23.87;;;4.70;;
55292;SDS011;41157;53.560;10.098;2023-04-25T02:44:25;22.73;;;5.40;;
55292;SDS011;41157;53.560;10.098;2023-04-25T02:46:52;22.17;;;5.00;;
55292;SDS011;41157;53.560;10.098;2023-04-25T02:49:21;21.03;;;4.90;;
55292;SDS011;41157;53.560;10.098;2023-04-25T02:51:48;25.90;;;5.23;;
55292;SDS011;41157;53.560;10.098;2023-04-25T02:54:15;19.50;;;4.43;;
55292;SDS011;41157;53.560;10.098;2023-04-25T02:56:42;26.00;;;5.90;;
55292;SDS011;41157;53.560;10.098;2023-04-25T02:59:09;19.97;;;4.97;;
55292;SDS011;41157;53.560;10.098;2023-04-25T03:01:36;21.87;;;4.90;;
55292;SDS011;41157;53.560;10.098;2023-04-25T03:04:03;24.37;;;5.20;;
55292;SDS011;41157;53.560;10.098;2023-04-25T03:06:32;21.77;;;4.40;;
55292;SDS011;41157;53.560;10.098;2023-04-25T03:08:59;22.90;;;4.50;;
55292;SDS011;41157;53.560;10.098;2023-04-25T03:11:25;23.50;;;4.60;;
55292;SDS011;41157;53.560;10.098;2023-04-25T03:13:52;28.20;;;5.10;;
55292;SDS011;41157;53.560;10.098;2023-04-25T03:16:19;30.27;;;5.00;;
55292;SDS011;41157;53.560;10.098;2023-04-25T03:18:47;20.13;;;4.10;;
55292;SDS011;41157;53.560;10.098;2023-04-25T03:21:15;15.07;;;4.00;;
55292;SDS011;41157;53.560;10.098;2023-04-25T03:23:43;24.37;;;4.73;;
55292;SDS011;41157;53.560;10.098;2023-04-25T03:26:10;25.50;;;4.60;;
55292;SDS011;41157;53.560;10.098;2023-04-25T03:28:37;17.63;;;4.40;;
55292;SDS011;41157;53.560;10.098;2023-04-25T03:31:05;22.17;;;4.10;;
55292;SDS011;41157;53.560;10.098;2023-04-25T03:33:32;27.50;;;4.97;;
55292;SDS011;41157;53.560;10.098;2023-04-25T03:35:59;16.47;;;3.87;;
55292;SDS011;41157;53.560;10.098;2023-04-25T03:38:26;25.33;;;5.30;;
55292;SDS011;41157;53.560;10.098;2023-04-25T03:40:54;24.77;;;5.40;;
55292;SDS011;41157;53.560;10.098;2023-04-25T03:43:22;20.23;;;4.07;;
55292;SDS011;41157;53.560;10.098;2023-04-25T03:45:49;25.00;;;4.53;;
55292;SDS011;41157;53.560;10.098;2023-04-25T03:48:16;15.90;;;4.10;;
55292;SDS011;41157;53.560;10.098;2023-04-25T03:50:43;20.80;;;4.33;;
55292;SDS011;41157;53.560;10.098;2023-04-25T03:53:10;18.03;;;4.17;;
55292;SDS011;41157;53.560;10.098;2023-04-25T03:55:37;19.20;;;3.87;;
55292;SDS011;41157;53.560;10.098;2023-04-25T03:58:05;22.73;;;4.27;;
55292;SDS011;41157;53.560;10.098;2023-04-25T04:00:33;26.33;;;4.30;;
55292;SDS011;41157;53.560;10.098;2023-04-25T04:03:00;15.80;;;4.00;;
55292;SDS011;41157;53.560;10.098;2023-04-25T04:05:28;23.23;;;4.83;;
55292;SDS011;41157;53.560;10.098;2023-04-25T04:07:55;19.37;;;4.10;;
55292;SDS011;41157;53.560;10.098;2023-04-25T04:10:22;21.87;;;4.67;;
55292;SDS011;41157;53.560;10.098;2023-04-25T04:12:49;19.50;;;4.23;;
55292;SDS011;41157;53.560;10.098;2023-04-25T04:15:17;20.50;;;4.40;;
55292;SDS011;41157;53.560;10.098;2023-04-25T04:17:44;15.93;;;4.13;;
55292;SDS011;41157;53.560;10.098;2023-04-25T04:20:11;15.93;;;4.20;;
55292;SDS011;41157;53.560;10.098;2023-04-25T04:22:38;19.97;;;3.77;;
55292;SDS011;41157;53.560;10.098;2023-04-25T04:25:06;13.73;;;3.80;;
55292;SDS011;41157;53.560;10.098;2023-04-25T04:27:33;16.77;;;3.87;;
55292;SDS011;41157;53.560;10.098;2023-04-25T04:30:00;20.80;;;4.10;;
55292;SDS011;41157;53.560;10.098;2023-04-25T04:32:29;17.33;;;3.57;;
55292;SDS011;41157;53.560;10.098;2023-04-25T04:34:58;21.87;;;5.30;;
55292;SDS011;41157;53.560;10.098;2023-04-25T04:37:25;21.33;;;4.13;;
55292;SDS011;41157;53.560;10.098;2023-04-25T04:39:52;16.43;;;3.60;;
55292;SDS011;41157;53.560;10.098;2023-04-25T04:42:19;17.87;;;4.10;;
55292;SDS011;41157;53.560;10.098;2023-04-25T04:44:46;14.53;;;3.40;;
55292;SDS011;41157;53.560;10.098;2023-04-25T04:47:13;14.83;;;3.40;;
55292;SDS011;41157;53.560;10.098;2023-04-25T04:49:41;12.80;;;3.67;;
55292;SDS011;41157;53.560;10.098;2023-04-25T04:52:09;12.70;;;3.43;;
55292;SDS011;41157;53.560;10.098;2023-04-25T04:54:36;18.93;;;4.40;;
55292;SDS011;41157;53.560;10.098;2023-04-25T04:57:03;17.87;;;3.90;;
55292;SDS011;41157;53.560;10.098;2023-04-25T04:59:30;19.00;;;3.80;;
55292;SDS011;41157;53.560;10.098;2023-04-25T05:01:57;20.47;;;4.23;;
55292;SDS011;41157;53.560;10.098;2023-04-25T05:04:25;11.43;;;3.53;;
55292;SDS011;41157;53.560;10.098;2023-04-25T05:06:53;18.40;;;3.90;;
55292;SDS011;41157;53.560;10.098;2023-04-25T05:09:20;19.23;;;3.50;;
55292;SDS011;41157;53.560;10.098;2023-04-25T05:11:50;14.37;;;4.13;;
55292;SDS011;41157;53.560;10.098;2023-04-25T05:14:17;15.70;;;3.77;;
55292;SDS011;41157;53.560;10.098;2023-04-25T05:16:44;26.60;;;3.90;;
55292;SDS011;41157;53.560;10.098;2023-04-25T05:19:11;13.10;;;3.77;;
55292;SDS011;41157;53.560;10.098;2023-04-25T05:21:38;14.57;;;3.73;;
55292;SDS011;41157;53.560;10.098;2023-04-25T05:24:06;19.23;;;4.37;;
55292;SDS011;41157;53.560;10.098;2023-04-25T05:26:33;16.47;;;3.50;;
55292;SDS011;41157;53.560;10.098;2023-04-25T05:29:01;12.57;;;3.50;;
55292;SDS011;41157;53.560;10.098;2023-04-25T05:31:28;14.33;;;3.20;;
55292;SDS011;41157;53.560;10.098;2023-04-25T05:33:55;10.37;;;3.17;;
55292;SDS011;41157;53.560;10.098;2023-04-25T05:36:22;12.97;;;3.07;;
55292;SDS011;41157;53.560;10.098;2023-04-25T05:38:49;18.53;;;3.30;;
55292;SDS011;41157;53.560;10.098;2023-04-25T05:41:17;15.50;;;3.60;;
55292;SDS011;41157;53.560;10.098;2023-04-25T05:43:44;13.80;;;3.70;;
55292;SDS011;41157;53.560;10.098;2023-04-25T05:46:13;14.07;;;3.70;;
55292;SDS011;41157;53.560;10.098;2023-04-25T05:48:41;15.47;;;3.77;;
55292;SDS011;41157;53.560;10.098;2023-04-25T05:51:08;12.17;;;3.40;;
55292;SDS011;41157;53.560;10.098;2023-04-25T05:53:35;17.63;;;3.47;;
55292;SDS011;41157;53.560;10.098;2023-04-25T05:56:03;20.03;;;4.20;;
55292;SDS011;41157;53.560;10.098;2023-04-25T05:58:31;12.40;;;3.77;;
55292;SDS011;41157;53.560;10.098;2023-04-25T06:00:58;16.23;;;3.70;;
55292;SDS011;41157;53.560;10.098;2023-04-25T06:03:25;16.23;;;3.90;;
55292;SDS011;41157;53.560;10.098;2023-04-25T06:05:52;16.77;;;3.83;;
55292;SDS011;41157;53.560;10.098;2023-04-25T06:08:19;16.53;;;3.60;;
55292;SDS011;41157;53.560;10.098;2023-04-25T06:10:46;17.93;;;4.27;;
55292;SDS011;41157;53.560;10.098;2023-04-25T06:13:13;20.23;;;3.87;;
55292;SDS011;41157;53.560;10.098;2023-04-25T06:15:42;15.23;;;3.47;;
55292;SDS011;41157;53.560;10.098;2023-04-25T06:18:09;17.33;;;3.93;;
55292;SDS011;41157;53.560;10.098;2023-04-25T06:20:36;14.53;;;3.30;;
55292;SDS011;41157;53.560;10.098;2023-04-25T06:23:03;14.27;;;4.07;;
55292;SDS011;41157;53.560;10.098;2023-04-25T06:25:30;17.70;;;3.77;;
55292;SDS011;41157;53.560;10.098;2023-04-25T06:27:57;13.37;;;3.77;;
55292;SDS011;41157;53.560;10.098;2023-04-25T06:30:24;15.80;;;3.70;;
55292;SDS011;41157;53.560;10.098;2023-04-25T06:32:52;13.80;;;4.03;;
55292;SDS011;41157;53.560;10.098;2023-04-25T06:35:19;17.07;;;3.50;;
55292;SDS011;41157;53.560;10.098;2023-04-25T06:37:46;14.43;;;3.33;;
55292;SDS011;41157;53.560;10.098;2023-04-25T06:40:13;15.43;;;3.77;;
55292;SDS011;41157;53.560;10.098;2023-04-25T06:42:42;20.40;;;4.47;;
55292;SDS011;41157;53.560;10.098;2023-04-25T06:45:09;12.63;;;3.30;;
55292;SDS011;41157;53.560;10.098;2023-04-25T06:47:36;13.73;;;3.40;;
55292;SDS011;41157;53.560;10.098;2023-04-25T06:50:05;18.83;;;3.80;;
55292;SDS011;41157;53.560;10.098;2023-04-25T06:52:33;20.63;;;4.23;;
55292;SDS011;41157;53.560;10.098;2023-04-25T06:55:00;19.77;;;3.80;;
55292;SDS011;41157;53.560;10.098;2023-04-25T06:57:27;10.97;;;3.17;;
55292;SDS011;41157;53.560;10.098;2023-04-25T06:59:54;14.23;;;3.53;;
55292;SDS011;41157;53.560;10.098;2023-04-25T07:02:21;15.27;;;3.00;;
55292;SDS011;41157;53.560;10.098;2023-04-25T07:04:48;13.43;;;3.57;;
55292;SDS011;41157;53.560;10.098;2023-04-25T07:07:17;14.90;;;3.47;;
55292;SDS011;41157;53.560;10.098;2023-04-25T07:09:44;12.10;;;3.13;;
55292;SDS011;41157;53.560;10.098;2023-04-25T07:12:11;10.17;;;3.17;;
55292;SDS011;41157;53.560;10.098;2023-04-25T07:14:38;12.70;;;3.00;;
55292;SDS011;41157;53.560;10.098;2023-04-25T07:17:05;10.27;;;3.20;;
55292;SDS011;41157;53.560;10.098;2023-04-25T07:19:32;14.27;;;3.70;;
55292;SDS011;41157;53.560;10.098;2023-04-25T07:21:59;17.47;;;4.20;;
55292;SDS011;41157;53.560;10.098;2023-04-25T07:24:28;11.37;;;2.80;;
55292;SDS011;41157;53.560;10.098;2023-04-25T07:26:55;7.57;;;2.60;;
55292;SDS011;41157;53.560;10.098;2023-04-25T07:29:22;10.03;;;2.63;;
55292;SDS011;41157;53.560;10.098;2023-04-25T07:31:49;12.73;;;2.90;;
55292;SDS011;41157;53.560;10.098;2023-04-25T07:34:16;9.33;;;2.73;;
55292;SDS011;41157;53.560;10.098;2023-04-25T07:36:43;13.67;;;3.27;;
55292;SDS011;41157;53.560;10.098;2023-04-25T07:39:11;12.93;;;3.20;;
55292;SDS011;41157;53.560;10.098;2023-04-25T07:41:39;11.73;;;2.90;;
55292;SDS011;41157;53.560;10.098;2023-04-25T07:44:06;12.07;;;2.87;;
55292;SDS011;41157;53.560;10.098;2023-04-25T07:46:33;14.80;;;3.23;;
55292;SDS011;41157;53.560;10.098;2023-04-25T07:49:00;7.30;;;2.67;;
55292;SDS011;41157;53.560;10.098;2023-04-25T07:51:27;9.13;;;2.63;;
55292;SDS011;41157;53.560;10.098;2023-04-25T07:53:54;9.90;;;3.07;;
55292;SDS011;41157;53.560;10.098;2023-04-25T07:56:21;12.00;;;2.57;;
55292;SDS011;41157;53.560;10.098;2023-04-25T07:58:49;10.60;;;2.70;;
55292;SDS011;41157;53.560;10.098;2023-04-25T08:01:16;13.20;;;3.00;;
55292;SDS011;41157;53.560;10.098;2023-04-25T08:03:45;14.23;;;2.90;;
55292;SDS011;41157;53.560;10.098;2023-04-25T08:06:12;12.17;;;2.60;;
55292;SDS011;41157;53.560;10.098;2023-04-25T08:08:39;7.60;;;2.40;;
55292;SDS011;41157;53.560;10.098;2023-04-25T08:11:06;10.10;;;2.83;;
55292;SDS011;41157;53.560;10.098;2023-04-25T08:13:33;11.37;;;3.00;;
55292;SDS011;41157;53.560;10.098;2023-04-25T08:16:01;13.00;;;2.63;;
55292;SDS011;41157;53.560;10.098;2023-04-25T08:18:28;13.87;;;3.40;;
55292;SDS011;41157;53.560;10.098;2023-04-25T08:20:55;10.53;;;2.87;;
55292;SDS011;41157;53.560;10.098;2023-04-25T08:23:22;10.60;;;2.67;;
55292;SDS011;41157;53.560;10.098;2023-04-25T08:25:49;14.90;;;3.00;;
55292;SDS011;41157;53.560;10.098;2023-04-25T08:28:16;15.27;;;2.80;;
55292;SDS011;41157;53.560;10.098;2023-04-25T08:30:43;10.03;;;2.73;;
55292;SDS011;41157;53.560;10.098;2023-04-25T08:33:12;12.37;;;2.87;;
55292;SDS011;41157;53.560;10.098;2023-04-25T08:35:39;12.70;;;2.73;;
55292;SDS011;41157;53.560;10.098;2023-04-25T08:38:06;14.90;;;3.40;;
55292;SDS011;41157;53.560;10.098;2023-04-25T08:40:35;9.33;;;2.57;;
55292;SDS011;41157;53.560;10.098;2023-04-25T08:43:04;12.70;;;3.10;;
55292;SDS011;41157;53.560;10.098;2023-04-25T08:45:36;12.03;;;2.60;;
55292;SDS011;41157;53.560;10.098;2023-04-25T08:48:05;13.07;;;4.80;;
55292;SDS011;41157;53.560;10.098;2023-04-25T08:50:34;9.83;;;2.70;;
55292;SDS011;41157;53.560;10.098;2023-04-25T08:53:04;11.87;;;3.00;;
55292;SDS011;41157;53.560;10.098;2023-04-25T08:55:31;15.30;;;3.20;;
55292;SDS011;41157;53.560;10.098;2023-04-25T08:57:58;19.93;;;2.90;;
55292;SDS011;41157;53.560;10.098;2023-04-25T09:00:26;8.40;;;2.20;;
55292;SDS011;41157;53.560;10.098;2023-04-25T09:02:53;10.23;;;2.50;;
55292;SDS011;41157;53.560;10.098;2023-04-25T09:05:21;15.00;;;2.80;;
55292;SDS011;41157;53.560;10.098;2023-04-25T09:07:50;7.70;;;2.37;;
55292;SDS011;41157;53.560;10.098;2023-04-25T09:10:17;10.70;;;3.20;;
55292;SDS011;41157;53.560;10.098;2023-04-25T09:12:44;8.73;;;2.30;;
55292;SDS011;41157;53.560;10.098;2023-04-25T09:15:11;9.37;;;2.30;;
55292;SDS011;41157;53.560;10.098;2023-04-25T09:17:41;8.10;;;2.20;;
55292;SDS011;41157;53.560;10.098;2023-04-25T09:20:10;9.10;;;2.43;;
55292;SDS011;41157;53.560;10.098;2023-04-25T09:22:37;7.50;;;2.10;;
55292;SDS011;41157;53.560;10.098;2023-04-25T09:25:09;6.23;;;2.10;;
55292;SDS011;41157;53.560;10.098;2023-04-25T09:27:36;14.23;;;2.40;;
55292;SDS011;41157;53.560;10.098;2023-04-25T09:30:03;10.47;;;2.70;;
55292;SDS011;41157;53.560;10.098;2023-04-25T09:32:31;4.50;;;1.77;;
55292;SDS011;41157;53.560;10.098;2023-04-25T09:34:58;12.90;;;2.63;;
55292;SDS011;41157;53.560;10.098;2023-04-25T09:37:25;6.57;;;2.17;;
55292;SDS011;41157;53.560;10.098;2023-04-25T09:39:53;8.57;;;2.43;;
55292;SDS011;41157;53.560;10.098;2023-04-25T09:42:23;8.13;;;2.23;;
55292;SDS011;41157;53.560;10.098;2023-04-25T09:44:51;7.37;;;2.10;;
55292;SDS011;41157;53.560;10.098;2023-04-25T09:47:19;7.73;;;2.53;;
55292;SDS011;41157;53.560;10.098;2023-04-25T09:49:48;9.63;;;2.40;;
55292;SDS011;41157;53.560;10.098;2023-04-25T09:52:16;8.17;;;2.10;;
55292;SDS011;41157;53.560;10.098;2023-04-25T09:54:43;6.10;;;2.17;;
55292;SDS011;41157;53.560;10.098;2023-04-25T09:57:11;8.63;;;2.23;;
55292;SDS011;41157;53.560;10.098;2023-04-25T09:59:42;5.97;;;2.07;;
55292;SDS011;41157;53.560;10.098;2023-04-25T10:02:09;9.90;;;2.87;;
55292;SDS011;41157;53.560;10.098;2023-04-25T10:04:37;8.37;;;2.43;;
55292;SDS011;41157;53.560;10.098;2023-04-25T10:07:05;9.73;;;3.23;;
55292;SDS011;41157;53.560;10.098;2023-04-25T10:09:32;8.53;;;2.27;;
55292;SDS011;41157;53.560;10.098;2023-04-25T10:12:00;6.77;;;2.20;;
55292;SDS011;41157;53.560;10.098;2023-04-25T10:14:28;8.67;;;2.60;;
55292;SDS011;41157;53.560;10.098;2023-04-25T10:16:57;7.00;;;2.07;;
55292;SDS011;41157;53.560;10.098;2023-04-25T10:19:25;9.53;;;2.63;;
55292;SDS011;41157;53.560;10.098;2023-04-25T10:21:52;14.30;;;2.67;;
55292;SDS011;41157;53.560;10.098;2023-04-25T10:24:20;6.10;;;2.20;;
55292;SDS011;41157;53.560;10.098;2023-04-25T10:26:48;4.27;;;1.80;;
55292;SDS011;41157;53.560;10.098;2023-04-25T10:29:21;6.43;;;2.37;;
55292;SDS011;41157;53.560;10.098;2023-04-25T10:31:49;11.60;;;1.93;;
55292;SDS011;41157;53.560;10.098;2023-04-25T10:34:17;7.70;;;1.90;;
55292;SDS011;41157;53.560;10.098;2023-04-25T10:36:48;7.60;;;2.00;;
55292;SDS011;41157;53.560;10.098;2023-04-25T10:39:21;8.37;;;2.30;;
55292;SDS011;41157;53.560;10.098;2023-04-25T10:41:52;7.77;;;2.33;;
55292;SDS011;41157;53.560;10.098;2023-04-25T10:44:19;7.17;;;2.23;;
55292;SDS011;41157;53.560;10.098;2023-04-25T10:46:46;7.77;;;2.20;;
55292;SDS011;41157;53.560;10.098;2023-04-25T10:54:51;6.33;;;1.87;;
55292;SDS011;41157;53.560;10.098;2023-04-25T10:57:28;6.27;;;2.10;;
55292;SDS011;41157;53.560;10.098;2023-04-25T10:59:57;6.43;;;2.07;;
55292;SDS011;41157;53.560;10.098;2023-04-25T11:02:26;4.93;;;2.10;;
55292;SDS011;41157;53.560;10.098;2023-04-25T11:04:53;5.33;;;1.80;;
55292;SDS011;41157;53.560;10.098;2023-04-25T11:07:23;8.20;;;1.90;;
55292;SDS011;41157;53.560;10.098;2023-04-25T11:09:54;5.03;;;2.30;;
55292;SDS011;41157;53.560;10.098;2023-04-25T11:12:21;6.43;;;2.30;;
55292;SDS011;41157;53.560;10.098;2023-04-25T11:14:49;9.67;;;2.20;;
55292;SDS011;41157;53.560;10.098;2023-04-25T11:17:16;9.10;;;2.30;;
55292;SDS011;41157;53.560;10.098;2023-04-25T11:19:43;8.43;;;2.30;;
55292;SDS011;41157;53.560;10.098;2023-04-25T11:22:15;6.17;;;2.10;;
55292;SDS011;41157;53.560;10.098;2023-04-25T11:24:42;8.53;;;2.33;;
55292;SDS011;41157;53.560;10.098;2023-04-25T11:27:10;11.60;;;2.10;;
55292;SDS011;41157;53.560;10.098;2023-04-25T11:29:37;8.47;;;2.40;;
55292;SDS011;41157;53.560;10.098;2023-04-25T11:32:04;8.23;;;2.30;;
55292;SDS011;41157;53.560;10.098;2023-04-25T11:34:31;6.27;;;1.80;;
55292;SDS011;41157;53.560;10.098;2023-04-25T11:36:59;7.80;;;2.20;;
55292;SDS011;41157;53.560;10.098;2023-04-25T11:39:26;7.83;;;2.20;;
55292;SDS011;41157;53.560;10.098;2023-04-25T11:41:54;3.80;;;1.87;;
55292;SDS011;41157;53.560;10.098;2023-04-25T11:44:22;7.83;;;1.83;;
55292;SDS011;41157;53.560;10.098;2023-04-25T11:46:50;11.13;;;2.67;;
55292;SDS011;41157;53.560;10.098;2023-04-25T11:49:17;5.83;;;2.13;;
55292;SDS011;41157;53.560;10.098;2023-04-25T11:51:44;9.43;;;2.20;;
55292;SDS011;41157;53.560;10.098;2023-04-25T11:54:11;6.87;;;1.63;;
55292;SDS011;41157;53.560;10.098;2023-04-25T11:56:40;7.77;;;1.77;;
55292;SDS011;41157;53.560;10.098;2023-04-25T11:59:08;7.17;;;1.83;;
55292;SDS011;41157;53.560;10.098;2023-04-25T12:01:37;8.57;;;1.90;;
55292;SDS011;41157;53.560;10.098;2023-04-25T12:04:11;4.93;;;1.80;;
55292;SDS011;41157;53.560;10.098;2023-04-25T12:06:38;5.33;;;1.90;;
55292;SDS011;41157;53.560;10.098;2023-04-25T12:09:07;7.00;;;1.87;;
55292;SDS011;41157;53.560;10.098;2023-04-25T12:11:40;4.73;;;1.60;;
55292;SDS011;41157;53.560;10.098;2023-04-25T12:14:07;2.47;;;1.50;;
55292;SDS011;41157;53.560;10.098;2023-04-25T12:16:43;5.70;;;1.70;;
55292;SDS011;41157;53.560;10.098;2023-04-25T12:19:13;5.40;;;1.93;;
55292;SDS011;41157;53.560;10.098;2023-04-25T12:21:40;6.07;;;1.87;;
55292;SDS011;41157;53.560;10.098;2023-04-25T12:24:10;3.97;;;1.60;;
55292;SDS011;41157;53.560;10.098;2023-04-25T12:26:48;5.87;;;1.67;;
55292;SDS011;41157;53.560;10.098;2023-04-25T12:29:17;4.37;;;1.67;;
55292;SDS011;41157;53.560;10.098;2023-04-25T12:31:45;3.23;;;1.60;;
55292;SDS011;41157;53.560;10.098;2023-04-25T12:34:12;7.30;;;2.77;;
55292;SDS011;41157;53.560;10.098;2023-04-25T12:36:39;3.70;;;1.60;;
55292;SDS011;41157;53.560;10.098;2023-04-25T12:39:07;4.87;;;1.63;;
55292;SDS011;41157;53.560;10.098;2023-04-25T12:41:35;3.73;;;1.20;;
55292;SDS011;41157;53.560;10.098;2023-04-25T12:44:02;5.80;;;1.33;;
55292;SDS011;41157;53.560;10.098;2023-04-25T12:46:29;6.90;;;1.57;;
55292;SDS011;41157;53.560;10.098;2023-04-25T12:48:58;7.03;;;1.87;;
55292;SDS011;41157;53.560;10.098;2023-04-25T12:51:25;4.93;;;1.70;;
55292;SDS011;41157;53.560;10.098;2023-04-25T12:53:53;4.10;;;1.70;;
55292;SDS011;41157;53.560;10.098;2023-04-25T12:56:20;5.72;;;1.40;;
55292;SDS011;41157;53.560;10.098;2023-04-25T12:58:47;3.33;;;1.58;;
55292;SDS011;41157;53.560;10.098;2023-04-25T13:01:14;5.80;;;1.97;;
55292;SDS011;41157;53.560;10.098;2023-04-25T13:03:41;5.20;;;2.03;;
55292;SDS011;41157;53.560;10.098;2023-04-25T13:06:09;7.47;;;1.90;;
55292;SDS011;41157;53.560;10.098;2023-04-25T13:08:37;5.80;;;1.90;;
55292;SDS011;41157;53.560;10.098;2023-04-25T13:11:05;6.57;;;2.10;;
55292;SDS011;41157;53.560;10.098;2023-04-25T13:13:32;4.07;;;1.73;;
55292;SDS011;41157;53.560;10.098;2023-04-25T13:16:00;8.80;;;2.20;;
55292;SDS011;41157;53.560;10.098;2023-04-25T13:18:27;6.17;;;2.33;;
55292;SDS011;41157;53.560;10.098;2023-04-25T13:20:54;6.33;;;1.97;;
55292;SDS011;41157;53.560;10.098;2023-04-25T13:23:24;5.13;;;2.10;;
55292;SDS011;41157;53.560;10.098;2023-04-25T13:25:51;5.37;;;1.90;;
55292;SDS011;41157;53.560;10.098;2023-04-25T13:28:18;3.53;;;1.60;;
55292;SDS011;41157;53.560;10.098;2023-04-25T13:30:46;3.50;;;1.50;;
55292;SDS011;41157;53.560;10.098;2023-04-25T13:33:14;3.43;;;1.67;;
55292;SDS011;41157;53.560;10.098;2023-04-25T13:35:41;6.07;;;1.70;;
55292;SDS011;41157;53.560;10.098;2023-04-25T13:38:08;5.03;;;1.60;;
55292;SDS011;41157;53.560;10.098;2023-04-25T13:40:36;4.97;;;1.60;;
55292;SDS011;41157;53.560;10.098;2023-04-25T13:43:03;6.57;;;1.73;;
55292;SDS011;41157;53.560;10.098;2023-04-25T13:45:31;5.77;;;1.70;;
55292;SDS011;41157;53.560;10.098;2023-04-25T13:47:58;5.80;;;1.80;;
55292;SDS011;41157;53.560;10.098;2023-04-25T13:50:25;10.83;;;2.63;;
55292;SDS011;41157;53.560;10.098;2023-04-25T13:52:52;13.00;;;2.73;;
55292;SDS011;41157;53.560;10.098;2023-04-25T13:55:19;11.27;;;2.60;;
55292;SDS011;41157;53.560;10.098;2023-04-25T13:57:48;8.60;;;2.77;;
55292;SDS011;41157;53.560;10.098;2023-04-25T14:00:15;9.63;;;2.43;;
55292;SDS011;41157;53.560;10.098;2023-04-25T14:02:42;3.77;;;1.73;;
55292;SDS011;41157;53.560;10.098;2023-04-25T14:05:09;2.77;;;1.47;;
55292;SDS011;41157;53.560;10.098;2023-04-25T14:07:36;7.33;;;2.10;;
55292;SDS011;41157;53.560;10.098;2023-04-25T14:10:04;4.00;;;1.70;;
55292;SDS011;41157;53.560;10.098;2023-04-25T14:12:32;3.83;;;1.60;;
55292;SDS011;41157;53.560;10.098;2023-04-25T14:15:00;4.23;;;1.87;;
55292;SDS011;41157;53.560;10.098;2023-04-25T14:17:27;6.27;;;2.00;;
55292;SDS011;41157;53.560;10.098;2023-04-25T14:19:55;7.80;;;2.13;;
55292;SDS011;41157;53.560;10.098;2023-04-25T14:22:22;9.63;;;2.10;;
55292;SDS011;41157;53.560;10.098;2023-04-25T14:24:50;6.00;;;2.03;;
55292;SDS011;41157;53.560;10.098;2023-04-25T14:27:17;7.40;;;1.80;;
55292;SDS011;41157;53.560;10.098;2023-04-25T14:29:44;4.67;;;1.90;;
55292;SDS011;41157;53.560;10.098;2023-04-25T14:32:13;8.03;;;2.20;;
55292;SDS011;41157;53.560;10.098;2023-04-25T14:34:41;4.77;;;2.03;;